Terminal Aerodrome Forecast
Issued by NWS Corpus Christi, TX

Home | Current Version | Previous Version | Text Only | Print | Product List | Glossary On
Versions: 1 2 3 4 5 6 7 8 9 10 11 12 13 14 15 16
000
FTUS44 KCRP 251737
TAFCRP
TAF
KCRP 251737Z 2518/2618 16021G31KT P6SM SCT035
      TEMPO 2518/2519 BKN035
     FM260200 16019G28KT P6SM SCT012
      TEMPO 2605/2608 BKN012
     FM260800 16015G23KT P6SM BKN012
     FM261500 27014G21KT P6SM SKC=

USA.gov is the U.S. government's official web portal to all federal, state and local government web resources and services.